KRDR/RDR METAR and TAF weather

Enter ICAO airport designator
Station Type Date Time Source
KRDR METAR 2021/06/24 05:56 UTC NOAA

KRDR 240556Z AUTO 34004KT 10SM CLR 17/14 A2974 RMK AO2 SLP071 60000 T01660142 10281 20160 403590160 52021 FZRANO $


Station Type Date Time Source
KRDR Decoded METAR 2021/06/24 05:56 UTC NOAA

Grand Forks Air Force Base, ND, United States (KRDR) 47-58N 097-24W 278M
Jun 24, 2021 - 01:56 AM EDT / 2021.06.24 0556 UTC
Wind: from the NNW (340 degrees) at 5 MPH (4 KT):0
Visibility: 10 mile(s):0
Sky conditions: clear
Temperature: 61.9 F (16.6 C)
Dew Point: 57.6 F (14.2 C)
Relative Humidity: 85%
Pressure (altimeter): 29.74 in. Hg (1007 hPa)
Pressure tendency: 0.06 inches (2.1 hPa) higher than three hours ago
ob: KRDR 240556Z AUTO 34004KT 10SM CLR 17/14 A2974 RMK AO2 SLP071 60000 T01660142 10281 20160 403590160 52021 FZRANO
cycle: 6

Station Type Date Time Source
KRDR TAF 2021/06/24 03:48 UTC NOAA

TAF
AMD KRDR 240335Z 2403/2508 36009KT 9999 SCT150 SCT200 510201 QNH2961INS
BECMG 2410/2411 VRB06KT 9999 SCT150 QNH2987INS
BECMG 2416/2417 35010G15KT 9999 SCT150 QNH2987INS
BECMG 2423/2424 04006KT 9999 SCT080 BKN150 QNH2989INS TX27/2420Z TN14/2411Z LAST NO
AMDS AFT 2404 NEXT 2410

Example: see airport list